createdAt,value
2023-04-18T00:00:49.392Z,0.37
2023-04-18T00:01:49.433Z,0.34
2023-04-18T00:02:49.597Z,0.34
2023-04-18T00:03:49.692Z,0.34
2023-04-18T00:04:49.578Z,0.34
2023-04-18T00:05:49.486Z,0.34
2023-04-18T00:06:49.542Z,0.36
2023-04-18T00:07:49.543Z,0.39
2023-04-18T00:08:49.563Z,0.43
2023-04-18T00:09:49.602Z,0.49
2023-04-18T00:10:49.607Z,0.50
2023-04-18T00:11:49.636Z,0.50
2023-04-18T00:12:49.633Z,0.50
2023-04-18T00:13:49.649Z,0.50
2023-04-18T00:14:49.681Z,0.50
2023-04-18T00:15:49.669Z,0.50
2023-04-18T00:16:49.734Z,0.50
2023-04-18T00:17:49.754Z,0.50
2023-04-18T00:18:49.703Z,0.50
2023-04-18T00:19:49.777Z,0.50
2023-04-18T00:20:49.709Z,0.51
2023-04-18T00:21:49.722Z,0.50
2023-04-18T00:22:49.716Z,0.50
2023-04-18T00:23:49.719Z,0.50
2023-04-18T00:24:49.775Z,0.50
2023-04-18T00:25:49.768Z,0.50
2023-04-18T00:26:49.816Z,0.50
2023-04-18T00:27:49.798Z,0.51
2023-04-18T00:28:49.820Z,0.50
2023-04-18T00:29:49.867Z,0.51
2023-04-18T00:30:49.918Z,0.50
2023-04-18T00:31:49.887Z,0.50
2023-04-18T00:32:49.934Z,0.51
2023-04-18T00:33:49.933Z,0.50
2023-04-18T00:34:49.980Z,0.50
2023-04-18T00:35:50.006Z,0.50
2023-04-18T00:36:50.004Z,0.51
2023-04-18T00:37:50.020Z,0.50
2023-04-18T00:38:50.048Z,0.51
2023-04-18T00:39:50.098Z,0.51
2023-04-18T00:40:50.088Z,0.50
2023-04-18T00:41:50.161Z,0.51
2023-04-18T00:42:50.151Z,0.50
2023-04-18T00:43:50.153Z,0.50
2023-04-18T00:44:50.177Z,0.50
2023-04-18T00:45:50.218Z,0.51
2023-04-18T00:46:50.255Z,0.51
2023-04-18T00:47:50.255Z,0.51
2023-04-18T00:48:50.267Z,0.51
2023-04-18T00:49:50.287Z,0.51
2023-04-18T00:50:50.298Z,0.51
2023-04-18T00:51:50.351Z,0.51
2023-04-18T00:52:50.326Z,0.50
2023-04-18T00:53:50.336Z,0.51
2023-04-18T00:54:50.334Z,0.51
2023-04-18T00:55:50.361Z,0.52
2023-04-18T00:56:50.365Z,0.50
2023-04-18T00:57:50.389Z,0.50
2023-04-18T00:58:50.440Z,0.51
2023-04-18T00:59:50.488Z,0.50
2023-04-18T01:00:50.465Z,0.51
2023-04-18T01:01:50.533Z,0.51
2023-04-18T01:02:50.619Z,0.52
2023-04-18T01:03:50.709Z,0.51
2023-04-18T01:04:50.561Z,0.51
2023-04-18T01:05:50.573Z,0.51
2023-04-18T01:06:50.593Z,0.51
2023-04-18T01:07:50.615Z,0.52
2023-04-18T01:08:50.648Z,0.52
2023-04-18T01:09:50.675Z,0.51
2023-04-18T01:10:50.685Z,0.51
2023-04-18T01:11:50.703Z,0.51
2023-04-18T01:12:50.744Z,0.51
2023-04-18T01:13:50.744Z,0.51
2023-04-18T01:14:50.792Z,0.51
2023-04-18T01:15:50.926Z,0.51
2023-04-18T01:16:50.808Z,0.51
2023-04-18T01:17:50.867Z,0.51
2023-04-18T01:18:50.859Z,0.51
2023-04-18T01:19:50.885Z,0.51
2023-04-18T01:20:50.923Z,0.51
2023-04-18T01:21:50.946Z,0.51
2023-04-18T01:22:50.967Z,0.51
2023-04-18T01:23:50.985Z,0.50
2023-04-18T01:24:51.017Z,0.51
2023-04-18T01:25:51.037Z,0.50
2023-04-18T01:26:51.051Z,0.51
2023-04-18T01:27:51.088Z,0.52
2023-04-18T01:28:51.103Z,0.51
2023-04-18T01:29:51.118Z,0.52
2023-04-18T01:30:51.163Z,0.52
2023-04-18T01:31:51.144Z,0.51
2023-04-18T01:32:51.235Z,0.51
2023-04-18T01:33:51.209Z,0.51
2023-04-18T01:34:51.232Z,0.50
2023-04-18T01:35:51.256Z,0.50
2023-04-18T01:36:51.285Z,0.51
2023-04-18T01:37:51.319Z,0.51
2023-04-18T01:38:51.323Z,0.50
2023-04-18T01:39:51.363Z,0.50
2023-04-18T01:40:51.394Z,0.52
2023-04-18T01:41:51.389Z,0.52
2023-04-18T01:42:51.423Z,0.51
2023-04-18T01:43:51.439Z,0.51
2023-04-18T01:44:51.461Z,0.51
2023-04-18T01:45:51.488Z,0.51
2023-04-18T01:46:51.564Z,0.50
2023-04-18T01:47:51.541Z,0.50
2023-04-18T01:48:51.537Z,0.50
2023-04-18T01:49:51.572Z,0.50
2023-04-18T01:50:51.587Z,0.51
2023-04-18T01:51:51.621Z,0.50
2023-04-18T01:52:51.634Z,0.52
2023-04-18T01:53:51.640Z,0.52
2023-04-18T01:54:51.659Z,0.51
2023-04-18T01:55:51.696Z,0.50
2023-04-18T01:56:51.707Z,0.51
2023-04-18T01:57:51.748Z,0.50
2023-04-18T01:58:51.829Z,0.51
2023-04-18T01:59:51.778Z,0.51
2023-04-18T02:00:51.831Z,0.50
2023-04-18T02:01:51.855Z,0.51
2023-04-18T02:02:51.967Z,0.51
2023-04-18T02:03:51.964Z,0.52
2023-04-18T02:04:51.897Z,0.52
2023-04-18T02:05:51.920Z,0.51
2023-04-18T02:06:51.946Z,0.51
2023-04-18T02:07:51.977Z,0.51
2023-04-18T02:08:52.000Z,0.51
2023-04-18T02:09:52.011Z,0.51
2023-04-18T02:10:52.015Z,0.51
2023-04-18T02:11:52.021Z,0.51
2023-04-18T02:12:52.028Z,0.51
2023-04-18T02:13:52.016Z,0.50
2023-04-18T02:14:52.035Z,0.52
2023-04-18T02:15:52.049Z,0.50
2023-04-18T02:16:52.141Z,0.50
2023-04-18T02:17:52.201Z,0.51
2023-04-18T02:18:52.124Z,0.51
2023-04-18T02:19:52.135Z,0.51
2023-04-18T02:20:52.135Z,0.52
2023-04-18T02:21:52.159Z,0.51
2023-04-18T02:22:52.186Z,0.51
2023-04-18T02:23:52.198Z,0.52
2023-04-18T02:24:52.227Z,0.52
2023-04-18T02:25:52.242Z,0.51
2023-04-18T02:26:52.277Z,0.51
2023-04-18T02:27:52.272Z,0.50
2023-04-18T02:28:52.281Z,0.51
2023-04-18T02:29:52.274Z,0.51
2023-04-18T02:30:52.312Z,0.51
2023-04-18T02:31:52.384Z,0.51
2023-04-18T02:32:52.454Z,0.51
2023-04-18T02:33:52.366Z,0.51
2023-04-18T02:34:52.416Z,0.50
2023-04-18T02:35:52.419Z,0.51
2023-04-18T02:36:52.436Z,0.51
2023-04-18T02:37:52.462Z,0.51
2023-04-18T02:38:52.485Z,0.51
2023-04-18T02:39:52.506Z,0.50
2023-04-18T02:40:52.539Z,0.51
2023-04-18T02:41:52.520Z,0.50
2023-04-18T02:42:52.520Z,0.51
2023-04-18T02:43:52.528Z,0.51
2023-04-18T02:44:52.534Z,0.51
2023-04-18T02:45:52.606Z,0.51
2023-04-18T02:46:52.558Z,0.51
2023-04-18T02:47:55.884Z,0.52
2023-04-18T02:48:52.582Z,0.52
2023-04-18T02:49:52.587Z,0.52
2023-04-18T02:50:52.598Z,0.52
2023-04-18T02:51:52.566Z,0.51
2023-04-18T02:52:52.568Z,0.52
2023-04-18T02:53:52.553Z,0.52
2023-04-18T02:54:52.548Z,0.52
2023-04-18T02:55:52.538Z,0.51
2023-04-18T02:56:52.538Z,0.52
2023-04-18T02:57:52.526Z,0.51
2023-04-18T02:58:52.533Z,0.51
2023-04-18T02:59:52.507Z,0.51
2023-04-18T03:00:52.595Z,0.51
2023-04-18T03:01:52.557Z,0.51
2023-04-18T03:02:52.611Z,0.51
2023-04-18T03:03:52.484Z,0.50
2023-04-18T03:04:52.527Z,0.51
2023-04-18T03:05:52.467Z,0.52
2023-04-18T03:06:52.514Z,0.52
2023-04-18T03:07:52.517Z,0.51
2023-04-18T03:08:52.521Z,0.50
2023-04-18T03:09:52.514Z,0.51
2023-04-18T03:10:53.219Z,0.52
2023-04-18T03:11:52.690Z,0.51
2023-04-18T03:12:52.704Z,0.51
2023-04-18T03:13:52.727Z,0.51
2023-04-18T03:14:52.740Z,0.51
2023-04-18T03:15:52.775Z,0.51
2023-04-18T03:16:55.193Z,0.51
2023-04-18T03:17:52.815Z,0.53
2023-04-18T03:18:52.755Z,0.53
2023-04-18T03:19:52.790Z,0.52
2023-04-18T03:20:52.740Z,0.51
2023-04-18T03:21:52.757Z,0.52
2023-04-18T03:22:52.746Z,0.51
2023-04-18T03:23:52.718Z,0.52
2023-04-18T03:24:52.701Z,0.51
2023-04-18T03:25:52.702Z,0.51
2023-04-18T03:26:52.703Z,0.50
2023-04-18T03:27:52.691Z,0.51
2023-04-18T03:28:52.679Z,0.50
2023-04-18T03:29:52.676Z,0.50
2023-04-18T03:30:52.689Z,0.52
2023-04-18T03:31:52.669Z,0.51
2023-04-18T03:32:52.773Z,0.51
2023-04-18T03:33:52.662Z,0.51
2023-04-18T03:34:52.685Z,0.51
2023-04-18T03:35:52.659Z,0.51
2023-04-18T03:36:52.629Z,0.51
2023-04-18T03:37:52.618Z,0.51
2023-04-18T03:38:52.631Z,0.52
2023-04-18T03:39:52.604Z,0.52
2023-04-18T03:40:52.595Z,0.51
2023-04-18T03:41:52.601Z,0.53
2023-04-18T03:42:52.579Z,0.51
2023-04-18T03:43:52.581Z,0.51
2023-04-18T03:44:52.564Z,0.51
2023-04-18T03:45:52.614Z,0.51
2023-04-18T03:46:52.565Z,0.51
2023-04-18T03:47:52.561Z,0.51
2023-04-18T03:48:52.538Z,0.51
2023-04-18T03:49:52.527Z,0.51
2023-04-18T03:50:52.520Z,0.51
2023-04-18T03:51:52.512Z,0.51
2023-04-18T03:52:52.500Z,0.51
2023-04-18T03:53:52.498Z,0.52
2023-04-18T03:54:52.510Z,0.51
2023-04-18T03:55:52.492Z,0.51
2023-04-18T03:56:52.483Z,0.51
2023-04-18T03:57:52.471Z,0.52
2023-04-18T03:58:52.466Z,0.51
2023-04-18T03:59:52.465Z,0.51
2023-04-18T04:00:52.448Z,0.51
2023-04-18T04:01:52.616Z,0.51
2023-04-18T04:02:52.644Z,0.52
2023-04-18T04:03:52.611Z,0.51
2023-04-18T04:04:51.459Z,0.51
2023-04-18T04:05:52.430Z,0.51
2023-04-18T04:06:52.415Z,0.51
2023-04-18T04:07:52.406Z,0.51
2023-04-18T04:08:52.423Z,0.52
2023-04-18T04:09:52.455Z,0.52
2023-04-18T04:10:52.510Z,0.52
2023-04-18T04:11:52.553Z,0.52
2023-04-18T04:12:52.531Z,0.51
2023-04-18T04:13:52.539Z,0.51
2023-04-18T04:14:52.553Z,0.51
2023-04-18T04:15:52.560Z,0.51
2023-04-18T04:16:52.817Z,0.51
2023-04-18T04:17:52.589Z,0.51
2023-04-18T04:18:52.577Z,0.51
2023-04-18T04:19:52.611Z,0.51
2023-04-18T04:20:52.630Z,0.51
2023-04-18T04:21:52.663Z,0.51
2023-04-18T04:22:52.642Z,0.52
2023-04-18T04:23:52.644Z,0.51
2023-04-18T04:24:52.649Z,0.50
2023-04-18T04:25:52.660Z,0.51
2023-04-18T04:26:52.816Z,0.51
2023-04-18T04:27:52.710Z,0.52
2023-04-18T04:28:52.746Z,0.52
2023-04-18T04:29:52.765Z,0.51
2023-04-18T04:30:52.796Z,0.51
2023-04-18T04:31:52.897Z,0.51
2023-04-18T04:32:52.895Z,0.51
2023-04-18T04:33:52.866Z,0.51
2023-04-18T04:34:52.899Z,0.51
2023-04-18T04:35:52.923Z,0.51
2023-04-18T04:36:52.949Z,0.51
2023-04-18T04:37:52.957Z,0.51
2023-04-18T04:38:52.960Z,0.52
2023-04-18T04:39:52.991Z,0.51
2023-04-18T04:40:53.004Z,0.51
2023-04-18T04:41:53.040Z,0.51
2023-04-18T04:42:53.082Z,0.51
2023-04-18T04:43:53.088Z,0.51
2023-04-18T04:44:53.152Z,0.51
2023-04-18T04:45:53.247Z,0.50
2023-04-18T04:46:53.158Z,0.51
2023-04-18T04:47:53.318Z,0.51
2023-04-18T04:48:53.198Z,0.51
2023-04-18T04:49:53.223Z,0.52
2023-04-18T04:50:53.243Z,0.50
2023-04-18T04:51:53.246Z,0.52
2023-04-18T04:52:53.260Z,0.51
2023-04-18T04:53:53.281Z,0.52
2023-04-18T04:54:53.291Z,0.51
2023-04-18T04:55:53.316Z,0.52
2023-04-18T04:56:53.322Z,0.52
2023-04-18T04:57:53.329Z,0.51
2023-04-18T04:58:53.388Z,0.51
2023-04-18T04:59:53.375Z,0.52
2023-04-18T05:00:53.421Z,0.51
2023-04-18T05:01:53.566Z,0.52
2023-04-18T05:02:53.728Z,0.51
2023-04-18T05:03:53.547Z,0.50
2023-04-18T05:04:53.469Z,0.52
2023-04-18T05:05:53.486Z,0.51
2023-04-18T05:06:53.506Z,0.51
2023-04-18T05:07:53.536Z,0.51
2023-04-18T05:08:53.558Z,0.51
2023-04-18T05:09:53.552Z,0.51
2023-04-18T05:10:53.544Z,0.51
2023-04-18T05:11:53.565Z,0.51
2023-04-18T05:12:53.601Z,0.51
2023-04-18T05:13:53.614Z,0.51
2023-04-18T05:14:53.667Z,0.52
2023-04-18T05:15:53.653Z,0.51
2023-04-18T05:16:53.706Z,0.52
2023-04-18T05:17:54.052Z,0.51
2023-04-18T05:18:53.684Z,0.51
2023-04-18T05:19:54.521Z,0.51
2023-04-18T05:20:53.720Z,0.51
2023-04-18T05:21:53.743Z,0.52
2023-04-18T05:22:53.761Z,0.52
2023-04-18T05:23:53.799Z,0.51
2023-04-18T05:24:54.016Z,0.51
2023-04-18T05:25:53.809Z,0.51
2023-04-18T05:26:53.835Z,0.51
2023-04-18T05:27:53.835Z,0.51
2023-04-18T05:28:53.842Z,0.52
2023-04-18T05:29:53.856Z,0.51
2023-04-18T05:30:54.097Z,0.53
2023-04-18T05:31:53.866Z,0.52
2023-04-18T05:32:53.941Z,0.52
2023-04-18T05:33:53.873Z,0.52
2023-04-18T05:34:53.887Z,0.52
2023-04-18T05:35:53.913Z,0.53
2023-04-18T05:36:53.948Z,0.53
2023-04-18T05:37:54.022Z,0.53
2023-04-18T05:38:53.981Z,0.53
2023-04-18T05:39:54.033Z,0.54
2023-04-18T05:40:54.013Z,0.55
2023-04-18T05:41:54.035Z,0.56
2023-04-18T05:42:54.051Z,0.55
2023-04-18T05:44:04.916Z,0.56
2023-04-18T05:44:55.048Z,0.57
2023-04-18T05:45:55.917Z,0.57
2023-04-18T05:46:55.077Z,0.57
2023-04-18T05:47:54.598Z,0.57
2023-04-18T05:48:54.540Z,0.58
2023-04-18T05:49:54.029Z,0.58
2023-04-18T05:50:54.034Z,0.59
2023-04-18T05:51:54.015Z,0.58
2023-04-18T05:52:54.003Z,0.61
2023-04-18T05:53:54.046Z,0.60
2023-04-18T05:54:53.992Z,0.63
2023-04-18T05:55:54.071Z,0.65
2023-04-18T05:56:55.007Z,0.66
2023-04-18T05:57:53.970Z,0.68
2023-04-18T05:58:54.053Z,0.72
2023-04-18T05:59:54.063Z,0.77
2023-04-18T06:00:53.947Z,0.78
2023-04-18T06:01:53.976Z,0.79
2023-04-18T06:02:54.260Z,0.80
2023-04-18T06:03:54.307Z,0.72
2023-04-18T06:04:54.172Z,0.68
2023-04-18T06:05:54.005Z,0.72
2023-04-18T06:06:53.917Z,0.73
2023-04-18T06:07:54.038Z,0.75
2023-04-18T06:08:53.915Z,0.74
2023-04-18T06:09:54.058Z,0.76
2023-04-18T06:10:53.884Z,0.72
2023-04-18T06:11:53.884Z,0.70
2023-04-18T06:12:53.875Z,0.71
2023-04-18T06:13:54.062Z,0.70
2023-04-18T06:14:54.548Z,0.69
2023-04-18T06:15:54.485Z,0.70
2023-04-18T06:16:54.443Z,0.71
2023-04-18T06:17:54.779Z,0.71
2023-04-18T06:18:54.632Z,0.71
2023-04-18T06:19:55.063Z,0.71
2023-04-18T06:20:54.549Z,0.72
2023-04-18T06:21:54.709Z,0.71
2023-04-18T06:22:54.844Z,0.71
2023-04-18T06:23:55.157Z,0.70
2023-04-18T06:24:54.830Z,0.71
2023-04-18T06:25:54.854Z,0.72
2023-04-18T06:26:54.571Z,0.71
2023-04-18T06:27:54.458Z,0.70
2023-04-18T06:28:54.724Z,0.69
2023-04-18T06:29:55.000Z,0.70
2023-04-18T06:30:54.656Z,0.71
2023-04-18T06:31:54.548Z,0.70
2023-04-18T06:32:54.636Z,0.70
2023-04-18T06:33:54.773Z,0.69
2023-04-18T06:34:54.579Z,0.71
2023-04-18T06:35:54.389Z,0.71
2023-04-18T06:36:54.404Z,0.70
2023-04-18T06:37:54.429Z,0.70
2023-04-18T06:38:54.557Z,0.71
2023-04-18T06:39:54.459Z,0.70
2023-04-18T06:40:54.470Z,0.71
2023-04-18T06:41:54.494Z,0.71
2023-04-18T06:42:54.514Z,0.72
2023-04-18T06:44:03.452Z,0.71
2023-04-18T06:44:54.533Z,0.72
2023-04-18T06:45:54.537Z,0.72
2023-04-18T06:46:54.558Z,0.72
2023-04-18T06:47:54.557Z,0.73
2023-04-18T06:48:54.503Z,0.73
2023-04-18T06:49:54.619Z,0.73
2023-04-18T06:50:54.518Z,0.73
2023-04-18T06:51:54.564Z,0.72
2023-04-18T06:52:54.552Z,0.71
2023-04-18T06:53:54.455Z,0.72
2023-04-18T06:54:54.566Z,0.71
2023-04-18T06:55:54.436Z,0.72
2023-04-18T06:56:54.438Z,0.72
2023-04-18T06:57:54.438Z,0.71
2023-04-18T06:58:54.581Z,0.71
2023-04-18T06:59:54.420Z,0.70
2023-04-18T07:00:54.584Z,0.71
2023-04-18T07:01:54.448Z,0.71
2023-04-18T07:02:54.671Z,0.70
2023-04-18T07:03:54.677Z,0.70
2023-04-18T07:04:54.386Z,0.71
2023-04-18T07:05:54.374Z,0.71
2023-04-18T07:06:54.784Z,0.70
2023-04-18T07:07:54.360Z,0.70
2023-04-18T07:08:54.616Z,0.70
2023-04-18T07:09:54.342Z,0.70
2023-04-18T07:10:54.331Z,0.70
2023-04-18T07:11:54.332Z,0.70
2023-04-18T07:12:54.322Z,0.69
2023-04-18T07:13:54.563Z,0.70
2023-04-18T07:14:54.316Z,0.70
2023-04-18T07:15:54.308Z,0.69
2023-04-18T07:16:54.322Z,0.70
2023-04-18T07:17:54.296Z,0.68
2023-04-18T07:18:54.274Z,0.70
2023-04-18T07:19:54.270Z,0.69
2023-04-18T07:20:54.265Z,0.69
2023-04-18T07:21:54.276Z,0.70
2023-04-18T07:22:54.437Z,0.68
2023-04-18T07:23:54.571Z,0.68
2023-04-18T07:24:54.234Z,0.69
2023-04-18T07:25:54.226Z,0.69
2023-04-18T07:26:55.044Z,0.68
2023-04-18T07:27:54.566Z,0.68
2023-04-18T07:28:54.567Z,0.69
2023-04-18T07:29:54.215Z,0.69
2023-04-18T07:30:54.208Z,0.68
2023-04-18T07:31:54.186Z,0.68
2023-04-18T07:32:54.213Z,0.69
2023-04-18T07:33:54.579Z,0.69
2023-04-18T07:34:54.178Z,0.68
2023-04-18T07:35:54.166Z,0.68
2023-04-18T07:36:54.200Z,0.69
2023-04-18T07:37:54.160Z,0.68
2023-04-18T07:38:54.658Z,0.69
2023-04-18T07:39:54.174Z,0.74
2023-04-18T07:40:54.188Z,0.77
2023-04-18T07:41:54.139Z,0.80
2023-04-18T07:42:54.143Z,0.82
2023-04-18T07:43:54.599Z,0.85
2023-04-18T07:44:55.133Z,0.86
2023-04-18T07:45:54.156Z,0.89
2023-04-18T07:46:54.105Z,0.95
2023-04-18T07:47:54.161Z,0.98
2023-04-18T07:48:54.578Z,1.00
2023-04-18T07:49:54.113Z,1.01
2023-04-18T07:50:54.135Z,1.06
2023-04-18T07:51:55.081Z,1.09
2023-04-18T07:52:54.068Z,1.14
2023-04-18T07:53:54.053Z,1.17
2023-04-18T07:54:54.164Z,1.20
2023-04-18T07:55:54.088Z,1.26
2023-04-18T07:56:54.036Z,1.26
2023-04-18T07:57:54.073Z,1.27
2023-04-18T07:58:54.099Z,1.31
2023-04-18T07:59:54.162Z,1.36
2023-04-18T08:00:54.585Z,1.40
2023-04-18T08:01:54.272Z,1.43
2023-04-18T08:02:57.600Z,1.46
2023-04-18T08:03:54.410Z,1.46
2023-04-18T08:04:54.503Z,1.48
2023-04-18T08:05:54.585Z,1.52
2023-04-18T08:06:57.471Z,1.61
2023-04-18T08:07:54.245Z,1.47
2023-04-18T08:08:54.588Z,1.51
2023-04-18T08:09:54.227Z,1.60
2023-04-18T08:10:54.259Z,1.70
2023-04-18T08:11:54.221Z,1.93
2023-04-18T08:12:54.210Z,1.98
2023-04-18T08:13:54.211Z,2.03
2023-04-18T08:14:54.197Z,2.05
2023-04-18T08:15:54.634Z,2.13
2023-04-18T08:16:54.205Z,2.14
2023-04-18T08:17:54.223Z,2.21
2023-04-18T08:18:54.165Z,2.28
2023-04-18T08:19:54.592Z,2.31
2023-04-18T08:20:54.151Z,2.37
2023-04-18T08:21:54.174Z,2.44
2023-04-18T08:23:53.145Z,2.53
2023-04-18T08:25:04.353Z,2.56
2023-04-18T08:25:54.124Z,2.54
2023-04-18T08:26:54.226Z,2.60
2023-04-18T08:27:54.137Z,2.65
2023-04-18T08:28:54.108Z,2.83
2023-04-18T08:29:54.608Z,3.00
2023-04-18T08:30:54.090Z,3.13
2023-04-18T08:31:54.120Z,3.18
2023-04-18T08:32:54.190Z,3.20
2023-04-18T08:33:55.065Z,3.37
2023-04-18T08:34:54.099Z,3.49
2023-04-18T08:35:54.055Z,3.51
2023-04-18T08:36:54.047Z,3.57
2023-04-18T08:37:54.054Z,3.58
2023-04-18T08:38:54.043Z,3.72
2023-04-18T08:39:54.110Z,3.88
2023-04-18T08:40:54.016Z,3.94
2023-04-18T08:41:54.014Z,3.98
2023-04-18T08:42:54.262Z,4.09
2023-04-18T08:43:56.558Z,4.19
2023-04-18T08:44:54.117Z,4.20
2023-04-18T08:45:54.064Z,4.24
2023-04-18T08:46:53.990Z,4.33
2023-04-18T08:47:54.072Z,4.49
2023-04-18T08:48:53.958Z,4.82
2023-04-18T08:49:54.101Z,4.98
2023-04-18T08:50:53.953Z,5.00
2023-04-18T08:51:53.949Z,5.24
2023-04-18T08:52:53.932Z,5.34
2023-04-18T08:53:54.134Z,5.39
2023-04-18T08:54:53.957Z,5.50
2023-04-18T08:55:53.914Z,5.60
2023-04-18T08:56:53.977Z,5.64
2023-04-18T08:57:53.899Z,5.94
2023-04-18T08:58:54.190Z,5.90
2023-04-18T08:59:56.633Z,5.93
2023-04-18T09:00:53.905Z,5.94
2023-04-18T09:01:53.890Z,5.99
2023-04-18T09:02:54.234Z,6.04
2023-04-18T09:03:53.922Z,6.31
2023-04-18T09:04:53.847Z,6.57
2023-04-18T09:05:53.844Z,6.75
2023-04-18T09:06:53.844Z,6.89
2023-04-18T09:07:54.111Z,6.93
2023-04-18T09:08:53.824Z,7.36
2023-04-18T09:09:53.830Z,7.34
2023-04-18T09:10:53.808Z,7.69
2023-04-18T09:11:53.806Z,7.76
2023-04-18T09:12:54.124Z,7.97
2023-04-18T09:13:53.797Z,8.05
2023-04-18T09:14:53.893Z,8.14
2023-04-18T09:15:53.782Z,8.30
2023-04-18T09:16:53.838Z,8.52
2023-04-18T09:17:54.662Z,8.54
2023-04-18T09:18:53.768Z,8.46
2023-04-18T09:19:53.763Z,8.29
2023-04-18T09:20:53.753Z,6.37
2023-04-18T09:21:54.114Z,2.81
2023-04-18T09:22:53.741Z,1.95
2023-04-18T09:23:53.732Z,2.07
2023-04-18T09:24:53.760Z,2.27
2023-04-18T09:25:54.116Z,2.25
2023-04-18T09:26:54.173Z,2.69
2023-04-18T09:27:54.149Z,3.17
2023-04-18T09:28:54.007Z,3.15
2023-04-18T09:29:54.694Z,3.08
2023-04-18T09:30:53.724Z,3.20
2023-04-18T09:31:54.120Z,2.92
2023-04-18T09:32:54.174Z,2.87
2023-04-18T09:33:53.674Z,2.82
2023-04-18T09:34:53.668Z,2.79
2023-04-18T09:35:53.663Z,2.81
2023-04-18T09:36:54.202Z,4.32
2023-04-18T09:37:53.642Z,3.86
2023-04-18T09:38:56.353Z,3.53
2023-04-18T09:39:53.635Z,3.41
2023-04-18T09:40:54.124Z,3.27
2023-04-18T09:41:53.623Z,3.05
2023-04-18T09:42:53.621Z,2.85
2023-04-18T09:43:53.612Z,2.82
2023-04-18T09:44:55.753Z,2.82
2023-04-18T09:45:53.652Z,2.82
2023-04-18T09:46:53.620Z,1.98
2023-04-18T09:47:53.728Z,2.09
2023-04-18T09:48:53.577Z,1.78
2023-04-18T09:49:53.569Z,1.34
2023-04-18T09:50:53.602Z,0.81
2023-04-18T09:51:53.640Z,0.71
2023-04-18T09:52:53.551Z,0.62
2023-04-18T09:53:53.573Z,0.59
2023-04-18T09:54:53.541Z,0.59
2023-04-18T09:55:54.951Z,0.64
2023-04-18T09:56:53.519Z,0.56
2023-04-18T09:57:53.524Z,0.48
2023-04-18T09:58:53.581Z,0.42
2023-04-18T09:59:53.495Z,0.37
2023-04-18T10:00:53.655Z,0.46
2023-04-18T10:01:53.543Z,0.50
2023-04-18T10:02:53.665Z,0.53
2023-04-18T10:03:53.529Z,0.55
2023-04-18T10:04:53.599Z,0.54
2023-04-18T10:05:54.431Z,0.55
2023-04-18T10:06:53.465Z,0.54
2023-04-18T10:07:53.583Z,0.53
2023-04-18T10:08:53.452Z,0.57
2023-04-18T10:09:53.427Z,0.62
2023-04-18T10:10:53.740Z,0.63
2023-04-18T10:11:53.433Z,0.60
2023-04-18T10:12:53.410Z,0.50
2023-04-18T10:13:53.401Z,0.54
2023-04-18T10:14:53.636Z,0.54
2023-04-18T10:15:53.431Z,0.47
2023-04-18T10:16:53.372Z,0.51
2023-04-18T10:18:03.420Z,0.50
2023-04-18T10:18:53.406Z,0.50
2023-04-18T10:19:53.387Z,0.51
2023-04-18T10:20:53.388Z,0.52
2023-04-18T10:21:53.401Z,0.54
2023-04-18T10:22:53.688Z,0.52
2023-04-18T10:23:53.351Z,0.50
2023-04-18T10:24:53.960Z,0.50
2023-04-18T10:25:53.347Z,0.46
2023-04-18T10:26:53.635Z,0.47
2023-04-18T10:27:53.311Z,0.51
2023-04-18T10:28:54.030Z,0.50
2023-04-18T10:29:53.300Z,0.51
2023-04-18T10:30:53.286Z,0.54
2023-04-18T10:31:53.807Z,0.68
2023-04-18T10:32:53.335Z,0.80
2023-04-18T10:34:03.830Z,0.97
2023-04-18T10:34:53.332Z,0.98
2023-04-18T10:35:53.273Z,1.03
2023-04-18T10:36:53.667Z,1.14
2023-04-18T10:37:53.554Z,1.48
2023-04-18T10:38:53.236Z,2.06
2023-04-18T10:39:53.245Z,2.25
2023-04-18T10:40:53.469Z,2.26
2023-04-18T10:41:53.753Z,2.39
2023-04-18T10:42:53.646Z,2.56
2023-04-18T10:43:53.203Z,2.69
2023-04-18T10:44:53.184Z,2.95
2023-04-18T10:45:53.725Z,3.22
2023-04-18T10:46:53.286Z,3.41
2023-04-18T10:47:53.655Z,3.46
2023-04-18T10:48:53.160Z,3.68
2023-04-18T10:49:53.811Z,3.90
2023-04-18T10:50:53.185Z,4.19
2023-04-18T10:51:53.165Z,4.41
2023-04-18T10:52:53.650Z,4.73
2023-04-18T10:53:53.162Z,4.93
2023-04-18T10:54:53.103Z,4.83
2023-04-18T10:55:53.103Z,5.23
2023-04-18T10:56:53.246Z,5.39
2023-04-18T10:57:53.193Z,5.79
2023-04-18T10:58:53.734Z,6.05
2023-04-18T10:59:53.077Z,6.36
2023-04-18T11:00:53.114Z,6.69
2023-04-18T11:01:53.215Z,6.90
2023-04-18T11:02:53.324Z,7.31
2023-04-18T11:03:53.436Z,7.70
2023-04-18T11:04:53.062Z,8.37
2023-04-18T11:05:53.032Z,8.59
2023-04-18T11:06:53.294Z,9.14
2023-04-18T11:07:53.092Z,9.87
2023-04-18T11:08:53.123Z,10.53
2023-04-18T11:09:54.162Z,11.25
2023-04-18T11:10:53.167Z,11.52
2023-04-18T11:11:53.661Z,12.17
2023-04-18T11:12:53.249Z,12.76
2023-04-18T11:13:53.243Z,13.45
2023-04-18T11:14:53.291Z,14.43
2023-04-18T11:15:53.295Z,15.20
2023-04-18T11:16:53.735Z,15.74
2023-04-18T11:17:53.389Z,15.44
2023-04-18T11:18:53.357Z,15.40
2023-04-18T11:19:53.676Z,15.35
2023-04-18T11:20:53.405Z,14.81
2023-04-18T11:21:53.688Z,13.25
2023-04-18T11:22:53.511Z,12.35
2023-04-18T11:23:53.541Z,11.75
2023-04-18T11:24:53.554Z,10.62
2023-04-18T11:25:53.638Z,9.96
2023-04-18T11:26:53.671Z,9.57
2023-04-18T11:27:53.713Z,9.25
2023-04-18T11:28:53.748Z,8.88
2023-04-18T11:29:53.803Z,8.53
2023-04-18T11:30:53.890Z,7.97
2023-04-18T11:31:56.846Z,7.33
2023-04-18T11:32:54.341Z,7.02
2023-04-18T11:33:53.975Z,6.45
2023-04-18T11:34:54.109Z,6.49
2023-04-18T11:35:54.024Z,6.68
2023-04-18T11:36:54.091Z,6.87
2023-04-18T11:37:54.198Z,7.02
2023-04-18T11:38:54.200Z,7.45
2023-04-18T11:39:54.225Z,7.83
2023-04-18T11:40:54.273Z,8.30
2023-04-18T11:41:54.680Z,8.52
2023-04-18T11:42:54.348Z,8.90
2023-04-18T11:43:54.677Z,9.20
2023-04-18T11:44:54.432Z,9.62
2023-04-18T11:45:54.537Z,10.24
2023-04-18T11:46:54.683Z,10.70
2023-04-18T11:47:54.525Z,10.61
2023-04-18T11:48:54.528Z,10.62
2023-04-18T11:49:56.437Z,10.62
2023-04-18T11:50:54.505Z,10.98
2023-04-18T11:51:54.677Z,10.99
2023-04-18T11:52:54.516Z,11.16
2023-04-18T11:53:54.496Z,11.10
2023-04-18T11:54:54.510Z,11.05
2023-04-18T11:55:54.481Z,10.96
2023-04-18T11:56:54.680Z,10.86
2023-04-18T11:57:54.468Z,10.93
2023-04-18T11:58:54.459Z,11.04
2023-04-18T11:59:54.454Z,10.93
2023-04-18T12:00:54.454Z,11.05
2023-04-18T12:01:58.456Z,10.97
2023-04-18T12:02:54.673Z,11.00
2023-04-18T12:03:54.544Z,11.02
2023-04-18T12:04:54.975Z,11.03
2023-04-18T12:05:54.678Z,11.05
2023-04-18T12:06:54.685Z,11.23
2023-04-18T12:07:54.566Z,11.11
2023-04-18T12:08:54.621Z,10.84
2023-04-18T12:09:54.684Z,10.94
2023-04-18T12:10:54.788Z,10.77
2023-04-18T12:11:55.193Z,10.91
2023-04-18T12:12:54.855Z,10.66
2023-04-18T12:13:55.048Z,10.65
2023-04-18T12:14:54.977Z,10.78
2023-04-18T12:15:55.028Z,10.57
2023-04-18T12:16:55.187Z,10.57
2023-04-18T12:17:55.235Z,10.17
2023-04-18T12:18:55.195Z,10.12
2023-04-18T12:19:55.212Z,10.25
2023-04-18T12:20:55.254Z,10.05
2023-04-18T12:21:55.318Z,10.01
2023-04-18T12:22:55.691Z,9.93
2023-04-18T12:23:55.698Z,9.82
2023-04-18T12:24:56.184Z,9.90
2023-04-18T12:25:55.509Z,9.68
2023-04-18T12:26:55.763Z,9.65
2023-04-18T12:27:55.619Z,9.74
2023-04-18T12:28:55.689Z,9.77
2023-04-18T12:29:55.740Z,9.72
2023-04-18T12:30:55.804Z,9.68
2023-04-18T12:31:56.211Z,9.66
2023-04-18T12:32:56.204Z,9.78
2023-04-18T12:33:55.946Z,9.68
2023-04-18T12:34:55.967Z,9.58
2023-04-18T12:35:56.011Z,9.51
2023-04-18T12:36:56.220Z,9.51
2023-04-18T12:37:56.200Z,9.40
2023-04-18T12:38:56.163Z,9.36
2023-04-18T12:39:56.203Z,9.44
2023-04-18T12:40:56.261Z,9.36
2023-04-18T12:41:56.693Z,9.28
2023-04-18T12:42:56.368Z,9.44
2023-04-18T12:43:56.390Z,9.30
2023-04-18T12:44:56.427Z,9.34
2023-04-18T12:45:56.515Z,9.18
2023-04-18T12:46:56.795Z,9.12
2023-04-18T12:47:57.370Z,9.24
2023-04-18T12:48:56.700Z,9.01
2023-04-18T12:49:56.651Z,9.04
2023-04-18T12:50:56.655Z,6.97
2023-04-18T12:51:56.662Z,4.36
2023-04-18T12:52:56.677Z,2.80
2023-04-18T12:53:56.697Z,1.75
2023-04-18T12:54:56.691Z,1.61
2023-04-18T12:55:56.703Z,1.94
2023-04-18T12:56:56.714Z,2.65
2023-04-18T12:57:56.711Z,3.53
2023-04-18T12:58:56.770Z,3.98
2023-04-18T12:59:56.806Z,4.37
2023-04-18T13:00:57.213Z,4.57
2023-04-18T13:01:56.993Z,4.65
2023-04-18T13:02:57.115Z,4.73
2023-04-18T13:04:10.754Z,4.70
2023-04-18T13:04:56.989Z,4.71
2023-04-18T13:05:56.952Z,4.72
2023-04-18T13:06:57.202Z,4.67
2023-04-18T13:08:08.635Z,4.62
2023-04-18T13:08:56.930Z,4.71
2023-04-18T13:09:56.920Z,4.72
2023-04-18T13:10:56.906Z,4.61
2023-04-18T13:11:56.904Z,4.59
2023-04-18T13:12:56.925Z,4.48
2023-04-18T13:13:56.907Z,4.38
2023-04-18T13:14:56.954Z,4.38
2023-04-18T13:15:56.884Z,4.27
2023-04-18T13:16:56.925Z,4.30
2023-04-18T13:17:57.306Z,4.24